Terminal Aerodrome Forecast
Issued by NWS Green Bay, WI

Home | Current Version | Previous Version | Text Only | Print | Product List | Glossary Off
Versions: 1 2 3 4 5 6 7 8 9 10 11 12 13 14 15 16 17 18 19 20 21 22 23 24 25 26 27 28 29 30 31 32 33 34 35 36 37 38

000
FTUS43 KGRB 242300
TAFGRB
TAF
KGRB 242333Z 2500/2524 14010KT P6SM SKC
     FM250200 14005KT P6SM SCT100
     FM250700 16003KT 5SM BR SCT030 BKN060 PROB30 2509/2513 2SM
      +TSRA OVC030CB
     FM251300 20006KT 5SM HZ SCT030 BKN070
     FM251900 23010G18KT 6SM HZ SCT035 BKN090=

USA.gov is the U.S. government's official web portal to all federal, state and local government web resources and services.